Terminal Aerodrome Forecast
Issued by NWS Midland/Odessa, TX

Home | Current Version | Previous Version | Text Only | Print | Product List | Glossary On
Versions: 1 2 3 4 5 6 7 8 9 10 11 12 13 14 15 16 17 18
000
FTUS44 KMAF 061947 AAB
TAFMAF
TAF AMD
KMAF 061947Z 0620/0718 17012G22KT P6SM SCT070 BKN130 BKN250
      TEMPO 0620/0624 6SM TSRA BKN070CB
     FM070000 18017G25KT P6SM SCT070 BKN130 PROB30 0705/0706 TSRA
      BKN060CB
     FM070700 15012KT P6SM SCT080 BKN130 BKN250
      TEMPO 0708/0712 6SM TSRA BKN060CB=

USA.gov is the U.S. government's official web portal to all federal, state and local government web resources and services.